Time;durP1;ratioP1;P1;durP2;ratioP2;P2;SDS_P1;SDS_P2;PMS_P1;PMS_P2;Temp;Humidity;BMP_temperature;BMP_pressure;BME280_temperature;BME280_humidity;BME280_pressure;Samples;Min_cycle;Max_cycle;Signal;HPM_P1;HPM_P2
2023/03/01 00:02:21;;;;;;;17.75;10.95;;;1.30;99.90;;;;;;5032191;28;20097;-76
2023/03/01 00:04:47;;;;;;;18.65;11.50;;;1.80;99.90;;;;;;5016318;28;20449;-77
2023/03/01 00:07:12;;;;;;;20.90;12.52;;;1.60;99.90;;;;;;5049866;28;20072;-77
2023/03/01 00:09:39;;;;;;;17.02;11.77;;;1.20;99.90;;;;;;5050049;28;20057;-76
2023/03/01 00:12:05;;;;;;;18.35;13.10;;;1.60;99.90;;;;;;5049731;28;20425;-76
2023/03/01 00:14:31;;;;;;;20.85;12.43;;;1.50;99.90;;;;;;5016034;28;20077;-78
2023/03/01 00:16:57;;;;;;;18.77;12.15;;;2.50;99.90;;;;;;5031856;28;20041;-77
2023/03/01 00:19:23;;;;;;;16.25;11.27;;;1.30;99.90;;;;;;5018390;28;20053;-76
2023/03/01 00:21:48;;;;;;;17.05;11.10;;;2.00;99.90;;;;;;5035630;28;20045;-76
2023/03/01 00:24:14;;;;;;;17.00;10.98;;;1.90;99.90;;;;;;5053644;28;20037;-76
2023/03/01 00:26:40;;;;;;;19.75;12.45;;;2.10;99.90;;;;;;5053224;28;20384;-77
2023/03/01 00:29:06;;;;;;;19.88;12.10;;;2.40;99.90;;;;;;5034927;28;20052;-77
2023/03/01 00:31:33;;;;;;;18.52;10.32;;;2.10;99.90;;;;;;5035386;28;20045;-77
2023/03/01 00:34:04;;;;;;;18.65;11.02;;;1.30;99.90;;;;;;5053418;28;20045;-77
2023/03/01 00:36:35;;;;;;;19.30;11.30;;;1.60;99.90;;;;;;5053001;28;20513;-77
2023/03/01 00:39:04;;;;;;;19.02;11.35;;;1.10;99.90;;;;;;5019128;28;20083;-77
2023/03/01 00:41:29;;;;;;;18.20;10.73;;;1.20;99.90;;;;;;5018848;28;20045;-77
2023/03/01 00:43:55;;;;;;;15.20;10.77;;;1.10;99.90;;;;;;5035439;28;20056;-77
2023/03/01 00:46:24;;;;;;;17.08;10.77;;;1.20;99.90;;;;;;5052943;28;20041;-77
2023/03/01 00:48:50;;;;;;;17.02;10.68;;;1.20;99.90;;;;;;5052900;28;20434;-77
2023/03/01 00:51:19;;;;;;;17.75;11.10;;;1.10;99.90;;;;;;5052823;28;20037;-77
2023/03/01 00:53:45;;;;;;;17.40;11.60;;;1.40;99.90;;;;;;5053113;28;20052;-77
2023/03/01 00:56:13;;;;;;;18.75;11.13;;;1.70;99.90;;;;;;5052760;28;20037;-77
2023/03/01 00:58:38;;;;;;;17.67;10.80;;;1.00;99.90;;;;;;5052108;28;20045;-77
2023/03/01 01:01:30;;;;;;;20.67;11.20;;;2.40;99.90;;;;;;5017624;28;20049;-77
2023/03/01 01:04:08;;;;;;;19.25;11.25;;;1.10;99.90;;;;;;5018772;28;20053;-76
2023/03/01 01:06:42;;;;;;;19.55;11.20;;;0.80;99.90;;;;;;5032949;28;20049;-77
2023/03/01 01:09:09;;;;;;;16.48;11.15;;;1.00;99.90;;;;;;5032535;28;20178;-76
2023/03/01 01:11:36;;;;;;;18.25;11.00;;;1.00;99.90;;;;;;5015831;28;20046;-77
2023/03/01 01:14:02;;;;;;;16.77;11.40;;;2.00;99.90;;;;;;5032832;28;20082;-77
2023/03/01 01:16:29;;;;;;;18.45;11.43;;;0.90;99.90;;;;;;5015101;28;20116;-77
2023/03/01 01:18:55;;;;;;;18.08;11.38;;;1.00;99.90;;;;;;5015288;28;20041;-77
2023/03/01 01:21:23;;;;;;;18.83;11.05;;;1.10;99.90;;;;;;4999115;28;20102;-78
2023/03/01 01:23:50;;;;;;;21.08;12.18;;;1.20;99.90;;;;;;5015215;28;20102;-77
2023/03/01 01:26:21;;;;;;;16.55;10.68;;;1.80;99.90;;;;;;5032936;28;20037;-77
2023/03/01 01:28:47;;;;;;;17.70;11.55;;;0.80;99.90;;;;;;5031831;28;20102;-77
2023/03/01 01:31:13;;;;;;;20.35;12.20;;;1.20;99.90;;;;;;5032233;28;20132;-77
2023/03/01 01:33:39;;;;;;;15.93;10.35;;;1.60;99.90;;;;;;5015064;28;20125;-77
2023/03/01 01:36:06;;;;;;;18.02;11.30;;;2.00;99.90;;;;;;5032275;28;20120;-77
2023/03/01 01:38:32;;;;;;;17.02;11.00;;;0.80;99.90;;;;;;5032499;28;20041;-77
2023/03/01 01:40:58;;;;;;;17.92;11.35;;;1.40;99.90;;;;;;5032515;28;20385;-77
2023/03/01 01:43:34;;;;;;;20.40;11.02;;;1.30;99.90;;;;;;5032549;28;20046;-77
2023/03/01 01:46:03;;;;;;;17.67;11.40;;;0.90;99.90;;;;;;5014802;28;20501;-77
2023/03/01 01:48:40;;;;;;;22.48;12.35;;;1.60;99.90;;;;;;5032218;28;20037;-77
2023/03/01 01:51:11;;;;;;;19.30;11.75;;;0.80;99.90;;;;;;4998613;28;20142;-77
2023/03/01 01:53:37;;;;;;;16.98;10.63;;;1.30;99.90;;;;;;5032390;28;20033;-77
2023/03/01 01:56:08;;;;;;;22.45;12.52;;;1.10;99.90;;;;;;5014778;28;20049;-77
2023/03/01 01:58:34;;;;;;;19.25;12.18;;;1.70;99.90;;;;;;5031527;28;20041;-77
2023/03/01 02:01:01;;;;;;;20.33;11.80;;;1.30;99.90;;;;;;5031797;28;20098;-77
2023/03/01 02:03:33;;;;;;;19.83;12.55;;;1.90;99.90;;;;;;5032847;28;20393;-77
2023/03/01 02:06:23;;;;;;;18.08;11.85;;;0.80;99.90;;;;;;5016809;28;20056;-76
2023/03/01 02:08:51;;;;;;;20.02;12.48;;;0.80;99.90;;;;;;5034026;28;20049;-78
2023/03/01 02:11:18;;;;;;;21.20;13.13;;;1.80;99.90;;;;;;5030005;28;20065;-78
2023/03/01 02:13:44;;;;;;;19.38;12.23;;;0.60;99.90;;;;;;5014025;28;20064;-78
2023/03/01 02:16:12;;;;;;;19.20;12.18;;;0.60;99.90;;;;;;5031913;28;20045;-78
2023/03/01 02:18:39;;;;;;;17.45;11.88;;;0.70;99.90;;;;;;4997922;28;20051;-77
2023/03/01 02:21:24;;;;;;;19.98;12.35;;;1.10;99.90;;;;;;5014299;28;20486;-78
2023/03/01 02:23:50;;;;;;;20.00;12.38;;;0.80;99.90;;;;;;5014161;28;20045;-78
2023/03/01 02:26:44;;;;;;;19.45;12.70;;;1.60;99.90;;;;;;5014190;28;20140;-77
2023/03/01 02:29:10;;;;;;;20.58;12.52;;;1.40;99.90;;;;;;5031083;28;20355;-77
2023/03/01 02:31:42;;;;;;;20.00;12.60;;;0.60;99.90;;;;;;5031653;28;20048;-77
2023/03/01 02:34:15;;;;;;;23.10;13.35;;;0.70;99.90;;;;;;4998702;28;20527;-77
2023/03/01 02:36:48;;;;;;;18.98;12.27;;;2.10;99.90;;;;;;5013966;28;20072;-77
2023/03/01 02:39:23;;;;;;;19.70;12.02;;;0.50;99.90;;;;;;5013987;28;20059;-77
2023/03/01 02:41:52;;;;;;;19.05;12.30;;;2.10;99.90;;;;;;4996765;28;20049;-78
2023/03/01 02:44:18;;;;;;;21.08;11.90;;;1.90;99.90;;;;;;5031364;28;20080;-78
2023/03/01 02:46:50;;;;;;;17.55;12.57;;;1.50;99.90;;;;;;5014317;28;20096;-78
2023/03/01 02:49:24;;;;;;;19.20;11.68;;;0.50;99.90;;;;;;5014153;28;20137;-78
2023/03/01 02:52:05;;;;;;;21.40;12.77;;;0.80;99.90;;;;;;5013983;28;20363;-78
2023/03/01 02:54:40;;;;;;;16.77;11.10;;;0.80;99.90;;;;;;4997742;28;20037;-78
2023/03/01 02:57:06;;;;;;;19.20;13.32;;;0.40;99.90;;;;;;5031072;28;20042;-81
2023/03/01 02:59:39;;;;;;;19.90;12.95;;;0.40;99.90;;;;;;5013266;28;20124;-78
2023/03/01 03:02:06;;;;;;;20.90;12.60;;;0.50;99.90;;;;;;5014031;28;20492;-78
2023/03/01 03:04:31;;;;;;;21.35;13.23;;;0.70;99.90;;;;;;5013773;28;20466;-78
2023/03/01 03:06:57;;;;;;;20.70;12.77;;;0.40;99.90;;;;;;5030995;28;20037;-78
2023/03/01 03:09:23;;;;;;;20.27;12.60;;;1.10;99.90;;;;;;5030749;28;20141;-78
2023/03/01 03:11:49;;;;;;;23.23;13.80;;;0.60;99.90;;;;;;5030966;28;20124;-78
2023/03/01 03:14:16;;;;;;;22.90;12.75;;;1.40;99.90;;;;;;5013270;28;20043;-78
2023/03/01 03:16:44;;;;;;;22.83;12.70;;;0.40;99.90;;;;;;5013520;28;20041;-78
2023/03/01 03:19:10;;;;;;;21.23;12.43;;;0.60;99.90;;;;;;5013447;28;20054;-78
2023/03/01 03:21:37;;;;;;;20.65;12.32;;;1.70;99.90;;;;;;5030853;28;20038;-78
2023/03/01 03:24:03;;;;;;;20.75;12.55;;;1.50;99.90;;;;;;5030746;28;20048;-78
2023/03/01 03:26:29;;;;;;;20.25;12.20;;;0.30;99.90;;;;;;4996688;28;20045;-78
2023/03/01 03:28:56;;;;;;;19.40;12.02;;;1.00;99.90;;;;;;5012585;28;20085;-78
2023/03/01 03:31:21;;;;;;;20.85;12.43;;;0.40;99.90;;;;;;5031115;28;20136;-78
2023/03/01 03:33:47;;;;;;;19.88;12.68;;;0.80;99.90;;;;;;5013295;28;20447;-78
2023/03/01 03:36:18;;;;;;;20.83;12.88;;;1.60;99.90;;;;;;5030877;28;20132;-78
2023/03/01 03:38:45;;;;;;;23.13;12.70;;;1.90;99.90;;;;;;5012869;28;20033;-77
2023/03/01 03:41:12;;;;;;;18.85;12.52;;;0.40;99.90;;;;;;5012945;28;20045;-78
2023/03/01 03:43:40;;;;;;;21.48;12.95;;;0.70;99.90;;;;;;5030658;28;20051;-76
2023/03/01 03:46:06;;;;;;;18.17;13.05;;;0.10;99.90;;;;;;5030729;28;20054;-77
2023/03/01 03:48:37;;;;;;;24.20;13.73;;;0.40;99.90;;;;;;5030490;28;20048;-77
2023/03/01 03:51:06;;;;;;;21.25;13.15;;;1.20;99.90;;;;;;5012984;28;20056;-77
2023/03/01 03:53:32;;;;;;;20.55;12.90;;;0.20;99.90;;;;;;5030068;28;20048;-77
2023/03/01 03:55:58;;;;;;;22.08;14.00;;;0.90;99.90;;;;;;5012557;28;20050;-76
2023/03/01 03:58:25;;;;;;;22.05;13.77;;;-0.10;99.90;;;;;;5012362;28;20033;-77
2023/03/01 04:00:53;;;;;;;21.95;12.85;;;0.40;99.90;;;;;;5012735;28;20045;-77
2023/03/01 04:03:20;;;;;;;23.48;13.93;;;-0.10;99.90;;;;;;5012890;28;20045;-77
2023/03/01 04:05:47;;;;;;;24.83;14.63;;;0.80;99.90;;;;;;4996468;28;20120;-77
2023/03/01 04:08:13;;;;;;;26.70;15.40;;;0.20;99.90;;;;;;5008849;28;20058;-77
2023/03/01 04:10:42;;;;;;;25.70;15.68;;;0.90;99.90;;;;;;5010469;28;20099;-77
2023/03/01 04:13:12;;;;;;;26.40;16.20;;;0.80;99.90;;;;;;5009162;28;20045;-77
2023/03/01 04:15:39;;;;;;;27.67;15.82;;;0.00;99.90;;;;;;5009677;28;20502;-77
2023/03/01 04:18:05;;;;;;;27.00;15.18;;;0.30;99.90;;;;;;5010368;28;20041;-77
2023/03/01 04:20:34;;;;;;;24.95;15.93;;;0.20;99.90;;;;;;5009258;28;20045;-77
2023/03/01 04:23:15;;;;;;;26.55;15.45;;;0.80;99.90;;;;;;5008867;28;20042;-77
2023/03/01 04:25:53;;;;;;;24.73;15.23;;;0.70;99.90;;;;;;5009626;28;20099;-77
2023/03/01 04:28:20;;;;;;;27.33;16.25;;;0.20;99.90;;;;;;5008765;28;20436;-77
2023/03/01 04:30:46;;;;;;;22.80;14.15;;;1.10;99.90;;;;;;5009412;28;20387;-77
2023/03/01 04:33:11;;;;;;;23.25;14.50;;;0.30;99.90;;;;;;5010085;28;20049;-78
2023/03/01 04:35:38;;;;;;;24.60;13.93;;;1.50;99.90;;;;;;5010056;28;20177;-77
2023/03/01 04:38:05;;;;;;;23.17;14.93;;;-0.10;99.90;;;;;;5009157;28;20038;-77
2023/03/01 04:40:31;;;;;;;25.50;14.77;;;0.70;99.90;;;;;;5010251;28;20055;-77
2023/03/01 04:42:57;;;;;;;25.88;15.02;;;1.00;99.90;;;;;;4992805;28;20053;-77
2023/03/01 04:45:22;;;;;;;23.55;14.48;;;0.00;99.90;;;;;;5010362;28;20046;-77
2023/03/01 04:47:49;;;;;;;25.25;15.52;;;-0.10;99.90;;;;;;4992703;28;20034;-77
2023/03/01 04:50:16;;;;;;;25.85;15.13;;;-0.10;99.90;;;;;;5008988;28;20041;-77
2023/03/01 04:52:43;;;;;;;24.90;14.60;;;0.00;99.90;;;;;;5009326;28;20438;-77
2023/03/01 04:55:10;;;;;;;23.65;14.20;;;0.30;99.90;;;;;;4976555;28;20052;-77
2023/03/01 04:57:35;;;;;;;23.13;14.27;;;-0.20;99.90;;;;;;5008365;28;20049;-76
2023/03/01 05:00:19;;;;;;;22.08;13.95;;;-0.40;99.90;;;;;;5009887;28;20038;-77
2023/03/01 05:02:52;;;;;;;;;;;0.10;99.90;;;;;;5009201;28;20042;-79
2023/03/01 05:05:26;;;;;;;23.83;14.60;;;-0.40;99.90;;;;;;5010969;28;19921;-77
2023/03/01 05:07:54;;;;;;;23.92;14.00;;;-0.40;99.90;;;;;;5015122;28;20053;-77
2023/03/01 05:10:20;;;;;;;23.35;13.73;;;0.00;99.90;;;;;;5015418;28;20055;-77
2023/03/01 05:12:46;;;;;;;23.33;14.43;;;0.70;99.90;;;;;;5021581;28;20048;-78
2023/03/01 05:15:12;;;;;;;22.25;13.48;;;-0.20;99.90;;;;;;5052680;28;20053;-76
2023/03/01 05:17:38;;;;;;;21.80;13.05;;;0.60;99.90;;;;;;5052438;28;20033;-76
2023/03/01 05:20:08;;;;;;;23.27;13.73;;;1.00;99.90;;;;;;5035063;28;20044;-77
2023/03/01 05:22:34;;;;;;;22.40;14.30;;;-0.10;99.90;;;;;;5034945;28;20072;-77
2023/03/01 05:25:00;;;;;;;20.73;13.25;;;0.60;99.90;;;;;;5035167;28;20381;-77
2023/03/01 05:27:25;;;;;;;20.48;12.93;;;-0.30;99.90;;;;;;5051628;28;20037;-77
2023/03/01 05:29:51;;;;;;;19.30;12.25;;;-0.30;99.90;;;;;;5034564;28;20098;-77
2023/03/01 05:32:17;;;;;;;22.08;12.93;;;1.40;99.90;;;;;;5104741;28;20049;-77
2023/03/01 05:34:43;;;;;;;18.55;12.65;;;0.70;99.90;;;;;;5034887;28;20048;-77
2023/03/01 05:37:09;;;;;;;19.15;12.80;;;0.90;99.90;;;;;;5001844;28;20043;-77
2023/03/01 05:39:36;;;;;;;22.33;12.63;;;0.90;99.90;;;;;;5034879;28;20380;-76
2023/03/01 05:42:02;;;;;;;19.10;12.52;;;0.90;99.90;;;;;;5052179;28;20048;-77
2023/03/01 05:44:29;;;;;;;21.45;12.38;;;-0.40;99.90;;;;;;5034259;28;20119;-76
2023/03/01 05:46:55;;;;;;;22.15;12.80;;;-0.30;99.90;;;;;;5052373;28;20045;-76
2023/03/01 05:49:23;;;;;;;19.60;11.80;;;0.20;99.90;;;;;;5017895;28;20078;-76
2023/03/01 05:51:51;;;;;;;19.20;12.73;;;-0.40;99.90;;;;;;5034914;28;20072;-76
2023/03/01 05:54:18;;;;;;;18.58;12.00;;;1.00;99.90;;;;;;5051791;28;20037;-76
2023/03/01 05:56:44;;;;;;;19.55;13.55;;;-0.40;99.90;;;;;;5034316;28;20390;-78
2023/03/01 05:59:11;;;;;;;21.00;13.80;;;-0.40;99.90;;;;;;5051370;28;20045;-76
2023/03/01 06:01:37;;;;;;;20.17;13.07;;;0.60;99.90;;;;;;5034903;28;20407;-76
2023/03/01 06:04:04;;;;;;;21.30;14.23;;;0.60;99.90;;;;;;5034141;28;20045;-76
2023/03/01 06:06:34;;;;;;;20.17;13.07;;;-0.40;99.90;;;;;;5018218;28;20386;-76
2023/03/01 06:08:59;;;;;;;18.48;12.38;;;-0.20;99.90;;;;;;5051868;28;20077;-76
2023/03/01 06:11:25;;;;;;;18.33;11.48;;;-0.50;99.90;;;;;;5033834;28;20073;-76
2023/03/01 06:13:51;;;;;;;15.98;9.75;;;-0.40;99.90;;;;;;5051804;28;20385;-76
2023/03/01 06:16:16;;;;;;;16.05;9.52;;;0.50;99.90;;;;;;5034028;28;20049;-76
2023/03/01 06:18:42;;;;;;;18.27;10.07;;;-0.50;99.90;;;;;;5033541;28;20041;-76
2023/03/01 06:21:08;;;;;;;13.57;9.13;;;0.30;99.90;;;;;;5033995;28;20041;-76
2023/03/01 06:23:34;;;;;;;14.20;9.50;;;0.50;99.90;;;;;;5051329;28;20052;-75
2023/03/01 06:26:00;;;;;;;16.13;10.52;;;0.90;99.90;;;;;;5051256;28;20086;-75
2023/03/01 06:28:26;;;;;;;13.77;9.68;;;-0.50;99.90;;;;;;5033227;28;20389;-76
2023/03/01 06:30:52;;;;;;;13.07;8.85;;;-0.70;99.90;;;;;;5051660;28;20044;-76
2023/03/01 06:33:24;;;;;;;14.63;8.00;;;1.40;99.90;;;;;;5033728;28;20040;-76
2023/03/01 06:35:50;;;;;;;12.38;8.48;;;0.50;99.90;;;;;;5017443;28;20049;-76
2023/03/01 06:38:18;;;;;;;12.80;7.40;;;-0.30;99.90;;;;;;5033301;28;20422;-76
2023/03/01 06:40:45;;;;;;;11.02;8.40;;;0.80;99.90;;;;;;5051140;28;20438;-77
2023/03/01 06:43:11;;;;;;;12.43;8.23;;;0.30;99.90;;;;;;5017115;28;20084;-76
2023/03/01 06:45:37;;;;;;;12.57;8.68;;;-0.40;99.90;;;;;;5033386;28;20084;-76
2023/03/01 06:48:05;;;;;;;12.02;8.80;;;-0.30;99.90;;;;;;5017499;28;20041;-76
2023/03/01 06:50:32;;;;;;;12.18;8.32;;;-0.50;99.90;;;;;;5033421;28;20040;-76
2023/03/01 06:52:58;;;;;;;12.98;8.80;;;-1.00;99.90;;;;;;5016976;28;20102;-76
2023/03/01 06:55:23;;;;;;;13.25;9.48;;;-0.90;99.90;;;;;;5033437;28;20052;-75
2023/03/01 06:57:57;;;;;;;14.35;9.07;;;-0.90;99.90;;;;;;5016701;28;20380;-76
2023/03/01 07:00:24;;;;;;;12.43;9.63;;;-0.80;99.90;;;;;;5051800;28;20125;-76
2023/03/01 07:02:50;;;;;;;12.68;9.60;;;-0.70;99.90;;;;;;5016671;28;20082;-76
2023/03/01 07:05:16;;;;;;;14.90;10.13;;;-0.50;99.90;;;;;;5051078;28;20068;-76
2023/03/01 07:07:42;;;;;;;16.15;10.05;;;0.10;99.90;;;;;;5050838;28;20457;-76
2023/03/01 07:10:08;;;;;;;12.80;9.45;;;-0.60;99.90;;;;;;5037260;28;20056;-76
2023/03/01 07:12:34;;;;;;;11.75;8.77;;;-0.60;99.90;;;;;;5031324;28;20389;-76
2023/03/01 07:15:00;;;;;;;14.90;9.38;;;0.70;99.90;;;;;;5031586;28;20033;-76
2023/03/01 07:17:25;;;;;;;14.30;10.20;;;-0.70;99.90;;;;;;5033092;28;20048;-76
2023/03/01 07:19:51;;;;;;;13.98;9.98;;;1.10;99.90;;;;;;5000446;28;20110;-76
2023/03/01 07:22:17;;;;;;;13.35;9.52;;;-0.50;99.90;;;;;;5016518;28;20102;-76
2023/03/01 07:24:43;;;;;;;12.70;9.48;;;-0.90;99.90;;;;;;5032930;28;20075;-76
2023/03/01 07:27:09;;;;;;;14.88;9.18;;;-0.90;99.90;;;;;;5032114;28;20044;-76
2023/03/01 07:29:36;;;;;;;12.00;9.15;;;0.80;99.90;;;;;;5032341;28;20474;-77
2023/03/01 07:32:03;;;;;;;12.93;9.13;;;-1.00;99.90;;;;;;5033244;28;20044;-76
2023/03/01 07:34:29;;;;;;;13.35;9.75;;;-0.70;99.90;;;;;;5032489;28;20105;-77
2023/03/01 07:36:55;;;;;;;16.98;10.88;;;0.20;99.90;;;;;;5050435;28;20412;-77
2023/03/01 07:39:22;;;;;;;14.35;10.35;;;-0.30;99.90;;;;;;5032739;28;20045;-77
2023/03/01 07:41:48;;;;;;;16.02;10.75;;;0.10;99.90;;;;;;5000866;28;20048;-76
2023/03/01 07:44:15;;;;;;;14.82;11.13;;;-0.30;99.90;;;;;;5032561;28;20041;-77
2023/03/01 07:46:41;;;;;;;15.15;11.45;;;-0.40;99.90;;;;;;5050364;28;20055;-78
2023/03/01 07:49:06;;;;;;;20.67;12.40;;;1.00;99.90;;;;;;5049902;28;20045;-78
2023/03/01 07:51:32;;;;;;;25.85;14.65;;;0.60;99.90;;;;;;5032382;28;20056;-77
2023/03/01 07:53:58;;;;;;;25.27;15.10;;;0.30;99.90;;;;;;5015846;28;20045;-77
2023/03/01 07:56:23;;;;;;;32.90;17.35;;;-0.20;99.90;;;;;;5032812;28;20116;-77
2023/03/01 07:58:49;;;;;;;31.85;17.90;;;-0.60;99.90;;;;;;5031679;28;20081;-78
2023/03/01 08:01:18;;;;;;;34.53;17.73;;;0.30;99.90;;;;;;5050384;28;20465;-78
2023/03/01 08:03:44;;;;;;;33.58;16.30;;;0.00;99.90;;;;;;5032474;28;20033;-78
2023/03/01 08:06:12;;;;;;;34.75;16.95;;;1.30;99.90;;;;;;5032971;28;20124;-79
2023/03/01 08:08:38;;;;;;;25.90;16.30;;;1.90;99.90;;;;;;5029097;28;20368;-78
2023/03/01 08:11:06;;;;;;;27.13;16.23;;;0.20;99.90;;;;;;5035025;28;20076;-78
2023/03/01 08:13:33;;;;;;;27.25;14.65;;;0.50;99.90;;;;;;5029188;28;20121;-78
2023/03/01 08:16:07;;;;;;;38.30;16.92;;;0.20;99.90;;;;;;5029239;28;20050;-78
2023/03/01 08:18:33;;;;;;;29.52;16.60;;;0.30;99.90;;;;;;5012126;28;20169;-77
2023/03/01 08:21:08;;;;;;;33.88;16.05;;;2.00;99.90;;;;;;5012739;28;20045;-74
2023/03/01 08:23:34;;;;;;;27.67;14.55;;;0.50;99.90;;;;;;5028915;28;20120;-77
2023/03/01 08:26:05;;;;;;;50.40;14.32;;;0.40;99.90;;;;;;5032888;28;20124;-75
2023/03/01 08:28:31;;;;;;;25.85;13.50;;;0.50;99.90;;;;;;5030678;28;20084;-77
2023/03/01 08:30:57;;;;;;;39.65;13.80;;;0.70;99.90;;;;;;5029059;28;20080;-79
2023/03/01 08:33:23;;;;;;;28.20;14.98;;;1.30;99.90;;;;;;5028646;28;20136;-78
2023/03/01 08:35:48;;;;;;;24.73;14.02;;;0.80;99.90;;;;;;5028895;28;20101;-77
2023/03/01 08:38:14;;;;;;;23.38;13.27;;;0.60;99.90;;;;;;5028963;28;20068;-77
2023/03/01 08:40:40;;;;;;;36.55;14.15;;;2.10;99.90;;;;;;4999379;28;20066;-77
2023/03/01 08:43:06;;;;;;;26.75;14.35;;;0.60;99.90;;;;;;5016051;28;20041;-77
2023/03/01 08:45:31;;;;;;;33.25;14.07;;;1.40;99.90;;;;;;5015880;28;20070;-75
2023/03/01 08:47:57;;;;;;;26.40;14.63;;;0.60;99.90;;;;;;5032215;28;20052;-74
2023/03/01 08:50:24;;;;;;;27.98;15.55;;;2.10;99.90;;;;;;5033233;28;20171;-76
2023/03/01 08:52:50;;;;;;;35.50;15.32;;;0.70;99.90;;;;;;5033432;28;20388;-75
2023/03/01 08:55:17;;;;;;;23.35;14.23;;;1.00;99.90;;;;;;5033094;28;20046;-76
2023/03/01 08:57:43;;;;;;;22.45;13.05;;;0.80;99.90;;;;;;5032543;28;20046;-77
2023/03/01 09:00:11;;;;;;;20.42;13.05;;;0.80;99.90;;;;;;5031935;28;20041;-77
2023/03/01 09:02:37;;;;;;;21.33;13.43;;;0.90;99.90;;;;;;5031940;28;20049;-75
2023/03/01 09:05:03;;;;;;;25.17;14.40;;;0.80;99.90;;;;;;5031781;28;20086;-75
2023/03/01 09:07:28;;;;;;;25.10;14.70;;;1.00;99.90;;;;;;5032144;28;20466;-74
2023/03/01 09:09:55;;;;;;;28.70;15.18;;;2.20;99.90;;;;;;5030766;28;20105;-75
2023/03/01 09:12:21;;;;;;;22.83;14.18;;;1.90;99.90;;;;;;5031991;28;20064;-76
2023/03/01 09:14:46;;;;;;;25.63;15.32;;;1.10;99.90;;;;;;5032526;28;20041;-74
2023/03/01 09:17:12;;;;;;;23.67;14.10;;;2.30;99.90;;;;;;5031692;28;20059;-73
2023/03/01 09:19:38;;;;;;;21.42;13.93;;;1.30;99.90;;;;;;5024983;28;20076;-74
2023/03/01 09:22:04;;;;;;;22.95;13.95;;;1.30;99.90;;;;;;5022441;28;20045;-74
2023/03/01 09:24:30;;;;;;;24.13;15.38;;;2.80;99.90;;;;;;5005029;28;20117;-72
2023/03/01 09:26:56;;;;;;;26.02;16.08;;;1.60;99.90;;;;;;5021963;28;20038;-72
2023/03/01 09:29:22;;;;;;;24.23;15.13;;;1.70;99.90;;;;;;5004647;28;20045;-71
2023/03/01 09:31:48;;;;;;;26.60;16.05;;;1.60;99.90;;;;;;5022250;28;20045;-71
2023/03/01 09:34:15;;;;;;;23.75;14.60;;;1.60;99.90;;;;;;5021721;28;20497;-71
2023/03/01 09:36:42;;;;;;;27.20;15.18;;;1.60;99.90;;;;;;5021778;28;20044;-71
2023/03/01 09:39:07;;;;;;;25.42;16.85;;;2.80;99.90;;;;;;5023468;28;20045;-72
2023/03/01 09:42:04;;;;;;;25.08;16.88;;;1.80;99.90;;;;;;5021448;28;20038;-71
2023/03/01 09:44:33;;;;;;;25.83;15.65;;;1.70;99.90;;;;;;5021147;28;20071;-72
2023/03/01 09:47:00;;;;;;;28.65;16.08;;;2.30;99.90;;;;;;5022260;28;20078;-71
2023/03/01 09:49:30;;;;;;;26.25;16.42;;;1.90;99.90;;;;;;5020421;28;20117;-71
2023/03/01 09:52:12;;;;;;;25.65;15.85;;;2.20;99.90;;;;;;5021411;28;20187;-71
2023/03/01 09:54:38;;;;;;;27.45;17.15;;;2.00;99.90;;;;;;5020678;28;20116;-72
2023/03/01 09:57:06;;;;;;;23.55;15.23;;;2.80;99.90;;;;;;5022341;28;20134;-73
2023/03/01 10:00:04;;;;;;;27.73;16.80;;;2.10;99.90;;;;;;5016613;28;20118;-78
2023/03/01 10:02:42;;;;;;;25.33;16.42;;;2.30;99.90;;;;;;5023239;28;20069;-73
2023/03/01 10:05:41;;;;;;;29.77;18.13;;;2.20;99.90;;;;;;5019155;28;20067;-74
2023/03/01 10:08:46;;;;;;;27.05;16.80;;;2.60;99.90;;;;;;5021460;28;20137;-73
2023/03/01 10:11:35;;;;;;;30.73;16.95;;;2.60;99.90;;;;;;5040523;28;20054;-73
2023/03/01 10:14:22;;;;;;;31.50;16.95;;;2.80;99.90;;;;;;5044923;28;20430;-74
2023/03/01 10:17:02;;;;;;;27.92;17.33;;;2.90;99.90;;;;;;5042325;28;20060;-73
2023/03/01 10:19:41;;;;;;;28.60;18.08;;;3.80;99.90;;;;;;5040067;28;20050;-74
2023/03/01 10:22:15;;;;;;;27.92;16.98;;;3.00;99.90;;;;;;5025766;28;20132;-74
2023/03/01 10:24:42;;;;;;;30.50;16.88;;;3.30;99.90;;;;;;5024782;28;20090;-72
2023/03/01 10:27:23;;;;;;;27.35;16.42;;;3.40;99.90;;;;;;5041830;28;20045;-73
2023/03/01 10:30:06;;;;;;;23.88;14.40;;;3.30;99.90;;;;;;5041781;28;20494;-72
2023/03/01 10:32:32;;;;;;;28.75;15.90;;;4.10;99.90;;;;;;5022518;28;20102;-74
2023/03/01 10:34:58;;;;;;;25.33;16.08;;;3.60;99.90;;;;;;5042924;28;20044;-73
2023/03/01 10:37:27;;;;;;;23.10;14.05;;;3.60;99.90;;;;;;5025780;28;20037;-73
2023/03/01 10:40:08;;;;;;;21.02;13.50;;;3.90;99.90;;;;;;5036691;28;20060;-74
2023/03/01 10:42:56;;;;;;;24.55;13.38;;;3.80;99.90;;;;;;5040111;28;20097;-73
2023/03/01 10:45:36;;;;;;;25.48;12.55;;;3.80;99.90;;;;;;5039494;28;20036;-73
2023/03/01 10:48:19;;;;;;;21.67;13.13;;;3.70;99.90;;;;;;5041087;28;20041;-73
2023/03/01 10:50:50;;;;;;;28.35;13.95;;;3.90;99.90;;;;;;5040846;28;20090;-75
2023/03/01 10:53:33;;;;;;;20.40;12.05;;;4.50;99.90;;;;;;5041270;28;20071;-74
2023/03/01 10:56:00;;;;;;;21.05;12.63;;;4.00;99.90;;;;;;5040187;28;20045;-73
2023/03/01 10:58:27;;;;;;;20.35;12.23;;;4.20;99.90;;;;;;5043521;28;20040;-75
2023/03/01 11:00:58;;;;;;;21.00;13.23;;;4.50;99.90;;;;;;5039934;28;20041;-74
2023/03/01 11:03:30;;;;;;;20.08;12.35;;;4.20;99.90;;;;;;5040324;28;20048;-74
2023/03/01 11:06:03;;;;;;;23.65;13.05;;;4.50;99.90;;;;;;5054047;27;20055;-74
2023/03/01 11:08:40;;;;;;;21.25;12.20;;;4.30;99.90;;;;;;5047909;28;20044;-74
2023/03/01 11:11:17;;;;;;;22.27;12.93;;;4.40;99.90;;;;;;5039493;28;20056;-74
2023/03/01 11:13:57;;;;;;;19.75;11.65;;;4.40;99.90;;;;;;5040768;28;20466;-73
2023/03/01 11:16:25;;;;;;;22.27;12.55;;;4.50;99.90;;;;;;5021474;28;20044;-74
2023/03/01 11:19:15;;;;;;;19.90;10.77;;;4.50;99.90;;;;;;5007392;28;20500;-74
2023/03/01 11:21:58;;;;;;;21.08;13.27;;;4.50;99.90;;;;;;5040400;28;20049;-74
2023/03/01 11:24:30;;;;;;;19.98;11.95;;;4.70;99.90;;;;;;5005094;28;20041;-74
2023/03/01 11:26:56;;;;;;;22.60;12.93;;;4.70;99.90;;;;;;5039763;28;20545;-75
2023/03/01 11:30:04;;;;;;;20.45;12.93;;;4.80;99.90;;;;;;5040382;28;20060;-73
2023/03/01 11:32:46;;;;;;;19.42;11.70;;;4.80;99.90;;;;;;5011191;28;20045;-74
2023/03/01 11:35:22;;;;;;;21.05;12.32;;;4.80;99.90;;;;;;5023189;28;20094;-73
2023/03/01 11:38:12;;;;;;;20.23;11.05;;;4.90;99.90;;;;;;5025402;28;20053;-75
2023/03/01 11:40:50;;;;;;;19.35;11.82;;;4.80;99.90;;;;;;5038525;28;20424;-74
2023/03/01 11:43:35;;;;;;;20.52;13.13;;;5.20;99.90;;;;;;5022291;28;20073;-73
2023/03/01 11:46:27;;;;;;;21.40;12.48;;;5.20;99.90;;;;;;5021074;28;20037;-73
2023/03/01 11:49:07;;;;;;;19.50;11.63;;;5.00;99.90;;;;;;4986942;28;20084;-74
2023/03/01 11:52:00;;;;;;;19.25;12.32;;;5.10;99.90;;;;;;5038991;28;20037;-73
2023/03/01 11:54:59;;;;;;;19.65;10.73;;;5.10;99.90;;;;;;5038276;28;20041;-73
2023/03/01 11:58:03;;;;;;;15.77;10.85;;;5.20;99.90;;;;;;5037476;28;20080;-75
2023/03/01 12:00:37;;;;;;;18.83;11.95;;;5.20;99.90;;;;;;5038655;28;20072;-73
2023/03/01 12:03:25;;;;;;;18.75;12.05;;;5.30;99.90;;;;;;5039623;28;20471;-73
2023/03/01 12:06:09;;;;;;;18.45;11.30;;;5.30;99.90;;;;;;5022912;28;20042;-73
2023/03/01 12:08:41;;;;;;;21.33;12.20;;;5.40;99.90;;;;;;5038682;28;20456;-73
2023/03/01 12:11:09;;;;;;;15.75;10.80;;;5.50;99.90;;;;;;5022202;28;20114;-73
2023/03/01 12:13:53;;;;;;;18.50;10.38;;;5.50;99.90;;;;;;5039528;28;20056;-73
2023/03/01 12:16:47;;;;;;;21.15;12.60;;;5.50;99.90;;;;;;5033233;28;20049;-76
2023/03/01 12:19:31;;;;;;;18.88;10.52;;;5.60;99.90;;;;;;5033130;28;20075;-72
2023/03/01 12:21:59;;;;;;;19.70;10.80;;;5.60;99.90;;;;;;5033174;28;20474;-71
2023/03/01 12:24:28;;;;;;;16.63;9.75;;;5.70;99.90;;;;;;5016019;28;20095;-72
2023/03/01 12:27:05;;;;;;;17.17;10.73;;;5.80;99.90;;;;;;5015438;28;20046;-72
2023/03/01 12:29:34;;;;;;;16.60;9.45;;;5.90;99.90;;;;;;5031843;28;20138;-72
2023/03/01 12:32:41;;;;;;;15.20;8.85;;;5.80;99.90;;;;;;5033208;28;20046;-72
2023/03/01 12:35:12;;;;;;;14.63;8.57;;;5.80;99.90;;;;;;5034143;28;20041;-73
2023/03/01 12:38:06;;;;;;;15.32;9.52;;;5.80;99.90;;;;;;5001583;28;20041;-72
2023/03/01 12:40:38;;;;;;;14.52;9.45;;;5.90;99.90;;;;;;5033274;28;20092;-72
2023/03/01 12:43:04;;;;;;;15.77;10.05;;;5.90;99.90;;;;;;5036869;28;20486;-73
2023/03/01 12:46:04;;;;;;;16.88;10.13;;;5.90;99.90;;;;;;5044159;28;20070;-73
2023/03/01 12:48:42;;;;;;;17.08;9.68;;;6.00;99.90;;;;;;5032976;28;20037;-72
2023/03/01 12:51:15;;;;;;;18.15;10.13;;;6.00;99.90;;;;;;5033114;28;20194;-73
2023/03/01 12:53:49;;;;;;;16.67;10.30;;;6.00;99.90;;;;;;5033077;28;20474;-73